Time;durP1;ratioP1;P1;durP2;ratioP2;P2;SDS_P1;SDS_P2;PMS_P1;PMS_P2;Temp;Humidity;BMP_temperature;BMP_pressure;BME280_temperature;BME280_humidity;BME280_pressure;Samples;Min_cycle;Max_cycle;Signal;HPM_P1;HPM_P2
2022/11/23 00:01:21;;;;;;;;;17.25;14.75;;;;;8.20;86.18;99408.44;5031146;28;10840;-61
2022/11/23 00:03:49;;;;;;;;;23.00;19.00;;;;;8.24;85.81;99411.50;5015986;28;10655;-63
2022/11/23 00:06:17;;;;;;;;;17.75;17.00;;;;;8.23;86.25;99409.88;5029871;28;10889;-64
2022/11/23 00:08:44;;;;;;;;;13.75;11.75;;;;;8.24;85.92;99415.00;5027126;28;10788;-61
2022/11/23 00:11:11;;;;;;;;;18.00;16.00;;;;;8.23;86.21;99421.41;5022764;28;10808;-63
2022/11/23 00:13:39;;;;;;;;;25.25;22.25;;;;;8.22;85.87;99425.09;5028499;28;10841;-64
2022/11/23 00:16:07;;;;;;;;;21.25;20.00;;;;;8.15;85.56;99427.00;5028508;28;11019;-60
2022/11/23 00:18:34;;;;;;;;;22.75;19.75;;;;;8.10;86.32;99424.13;5030952;28;11003;-62
2022/11/23 00:21:13;;;;;;;;;19.00;17.50;;;;;8.16;86.09;99425.97;5019171;28;11713;-63
2022/11/23 00:23:39;;;;;;;;;22.25;13.75;;;;;8.22;85.83;99429.66;5018618;28;11090;-65
2022/11/23 00:26:06;;;;;;;;;15.00;14.50;;;;;8.25;86.16;99429.22;5021460;28;10957;-63
2022/11/23 00:28:36;;;;;;;;;26.50;21.50;;;;;8.26;86.01;99431.69;5025797;28;10988;-63
2022/11/23 00:31:02;;;;;;;;;13.25;13.25;;;;;8.26;85.81;99434.34;5039315;28;11011;-64
2022/11/23 00:33:28;;;;;;;;;30.50;23.75;;;;;8.18;85.37;99439.97;5019113;28;10793;-63
2022/11/23 00:36:07;;;;;;;;;26.75;21.00;;;;;8.14;86.01;99441.44;5025809;28;11776;-63
2022/11/23 00:38:33;;;;;;;;;20.25;19.50;;;;;8.11;86.03;99452.59;5026098;28;10987;-59
2022/11/23 00:41:01;;;;;;;;;26.00;20.00;;;;;8.10;86.28;99449.09;5022086;28;11592;-64
2022/11/23 00:43:29;;;;;;;;;27.75;21.75;;;;;8.11;85.95;99453.41;5028925;28;10963;-64
2022/11/23 00:46:16;;;;;;;;;19.25;17.50;;;;;8.19;86.37;99452.34;5026953;28;10960;-60
2022/11/23 00:48:43;;;;;;;;;19.50;15.75;;;;;8.20;86.34;99454.00;5016706;28;10869;-63
2022/11/23 00:51:12;;;;;;;;;19.50;15.75;;;;;8.21;85.97;99460.16;5017518;28;10795;-63
2022/11/23 00:53:39;;;;;;;;;27.75;22.75;;;;;8.19;85.71;99463.09;5016022;28;10975;-62
2022/11/23 00:56:06;;;;;;;;;27.50;21.25;;;;;8.20;85.77;99454.00;5022242;28;11050;-62
2022/11/23 00:58:33;;;;;;;;;24.25;24.00;;;;;8.24;86.06;99467.78;5021393;28;10964;-62
2022/11/23 01:01:09;;;;;;;;;27.75;16.50;;;;;8.25;86.09;99464.91;5023254;28;11602;-64
2022/11/23 01:03:39;;;;;;;;;24.25;23.50;;;;;8.20;85.99;99472.75;5027126;28;11040;-64
2022/11/23 01:06:11;;;;;;;;;17.75;16.25;;;;;8.22;85.44;99469.84;5017649;28;10981;-64
2022/11/23 01:08:38;;;;;;;;;19.00;18.50;;;;;8.21;85.83;99471.72;5028941;28;10875;-64
2022/11/23 01:11:08;;;;;;;;;19.50;17.25;;;;;8.23;85.89;99475.03;5022274;28;10855;-59
2022/11/23 01:13:39;;;;;;;;;18.75;17.00;;;;;8.22;85.44;99468.00;5028908;28;11668;-64
2022/11/23 01:16:12;;;;;;;;;19.00;18.50;;;;;8.22;85.54;99465.31;5024596;28;11780;-64
2022/11/23 01:18:38;;;;;;;;;19.25;17.25;;;;;8.25;86.20;99470.25;5018226;28;10979;-63
2022/11/23 01:21:04;;;;;;;;;19.75;15.00;;;;;8.27;86.09;99467.38;5024839;28;10888;-63
2022/11/23 01:23:31;;;;;;;;;17.75;15.00;;;;;8.28;85.96;99460.97;5025430;28;10886;-65
2022/11/23 01:26:06;;;;;;;;;22.25;17.50;;;;;8.28;86.12;99471.69;5028154;28;10795;-64
2022/11/23 01:28:33;;;;;;;;;25.25;23.75;;;;;8.22;85.42;99459.13;5025517;28;10859;-63
2022/11/23 01:31:09;;;;;;;;;27.50;25.25;;;;;8.21;85.51;99466.34;5015095;28;11132;-65
2022/11/23 01:33:36;;;;;;;;;24.75;23.75;;;;;8.14;85.82;99466.41;5020241;28;11196;-63
2022/11/23 01:36:14;;;;;;;;;20.25;19.25;;;;;8.17;85.78;99460.59;5020711;28;11118;-62
2022/11/23 01:38:42;;;;;;;;;18.50;18.00;;;;;8.21;86.34;99466.34;5024754;28;10883;-65
2022/11/23 01:41:14;;;;;;;;;23.75;23.00;;;;;8.15;85.71;99460.00;5018222;28;10860;-64
2022/11/23 01:43:41;;;;;;;;;24.25;22.25;;;;;8.18;85.87;99464.09;5029905;28;10923;-64
2022/11/23 01:46:08;;;;;;;;;30.75;24.75;;;;;8.15;85.74;99461.84;5015049;28;11002;-64
2022/11/23 01:48:39;;;;;;;;;35.75;27.25;;;;;8.12;86.23;99464.94;5028461;28;11045;-64
2022/11/23 01:51:11;;;;;;;;;34.50;28.25;;;;;8.12;86.26;99464.94;5017555;28;11070;-62
2022/11/23 01:53:40;;;;;;;;;29.75;24.00;;;;;8.12;86.08;99467.63;5023632;28;11722;-64
2022/11/23 01:56:09;;;;;;;;;25.50;23.75;;;;;8.13;85.79;99482.66;5021381;28;11174;-64
2022/11/23 01:58:43;;;;;;;;;28.00;25.00;;;;;8.13;85.83;99478.13;5047542;28;11001;-64
2022/11/23 02:01:10;;;;;;;;;30.00;21.50;;;;;8.15;86.01;99477.94;5038905;28;11031;-64
2022/11/23 02:03:37;;;;;;;;;31.25;28.50;;;;;8.06;85.81;99485.41;5029821;28;10973;-64
2022/11/23 02:06:13;;;;;;;;;30.00;28.25;;;;;8.08;85.61;99488.66;5027563;28;11045;-62
2022/11/23 02:08:41;;;;;;;;;23.25;22.75;;;;;8.11;85.80;99482.06;5030385;28;11847;-64
2022/11/23 02:11:09;;;;;;;;;28.50;26.50;;;;;8.12;86.05;99497.13;5025418;28;11114;-64
2022/11/23 02:13:36;;;;;;;;;37.00;28.25;;;;;8.08;86.24;99491.34;5026556;28;11155;-63
2022/11/23 02:16:03;;;;;;;;;24.25;23.25;;;;;8.08;85.78;99495.91;5022128;28;11188;-65
2022/11/23 02:18:32;;;;;;;;;24.00;21.00;;;;;8.09;86.11;99489.50;5024178;28;11166;-63
2022/11/23 02:21:01;;;;;;;;;21.75;21.00;;;;;8.13;86.00;99485.34;5030676;28;11138;-64
2022/11/23 02:23:39;;;;;;;;;23.50;20.00;;;;;8.14;85.50;99487.00;5027198;28;10891;-64
2022/11/23 02:26:19;;;;;;;;;30.00;23.75;;;;;8.15;85.47;99494.03;5020772;28;11024;-64
2022/11/23 02:28:52;;;;;;;;;24.25;21.25;;;;;8.16;86.07;99484.94;5024118;28;11149;-64
2022/11/23 02:31:19;;;;;;;;;23.25;23.00;;;;;8.15;85.85;99483.31;5025851;28;11003;-64
2022/11/23 02:33:45;;;;;;;;;22.25;21.00;;;;;8.12;86.04;99491.75;5028147;28;10957;-64
2022/11/23 02:36:34;;;;;;;;;17.25;17.00;;;;;8.13;85.92;99474.63;5030370;28;11025;-64
2022/11/23 02:39:10;;;;;;;;;17.50;17.50;;;;;8.14;86.26;99481.63;5019453;28;10875;-65
2022/11/23 02:41:41;;;;;;;;;27.00;21.75;;;;;8.16;85.71;99472.34;5022503;28;11028;-63
2022/11/23 02:44:33;;;;;;;;;22.50;21.50;;;;;8.13;85.91;99474.63;5023973;28;10984;-64
2022/11/23 02:47:00;;;;;;;;;25.00;21.00;;;;;8.09;85.85;99487.63;5028039;28;11028;-63
2022/11/23 02:49:27;;;;;;;;;31.50;22.00;;;;;8.07;85.95;99488.91;5011406;28;11263;-64
2022/11/23 02:51:53;;;;;;;;;26.00;22.00;;;;;8.10;85.68;99491.13;5012833;28;11172;-65
2022/11/23 02:54:23;;;;;;;;;17.00;15.00;;;;;8.07;86.04;99497.75;5012176;28;11140;-65
2022/11/23 02:56:50;;;;;;;;;21.00;17.00;;;;;8.05;85.61;99501.66;5017346;28;10805;-64
2022/11/23 02:59:17;;;;;;;;;17.25;15.75;;;;;8.10;86.42;99491.13;5050599;28;11626;-64
2022/11/23 03:01:44;;;;;;;;;14.00;13.75;;;;;8.07;85.92;99495.06;5025974;28;10926;-64
2022/11/23 03:04:12;;;;;;;;;14.00;14.00;;;;;8.07;86.12;99496.94;5030714;28;10877;-63
2022/11/23 03:06:38;;;;;;;;;19.50;15.50;;;;;8.02;86.50;99492.22;5012799;28;10885;-64
2022/11/23 03:09:06;;;;;;;;;22.00;19.00;;;;;8.05;86.10;99499.81;5026149;28;10860;-64
2022/11/23 03:11:33;;;;;;;;;16.00;13.50;;;;;8.09;86.34;99506.38;5029929;28;10727;-64
2022/11/23 03:14:01;;;;;;;;;14.75;13.75;;;;;8.13;85.83;99499.56;5045436;28;10705;-65
2022/11/23 03:16:29;;;;;;;;;15.75;13.50;;;;;8.15;86.20;99508.25;5028917;28;10669;-64
2022/11/23 03:18:58;;;;;;;;;18.75;16.75;;;;;8.11;86.19;99508.88;5024268;28;10716;-63
2022/11/23 03:21:24;;;;;;;;;23.25;15.25;;;;;7.96;86.53;99508.28;5026369;28;10794;-63
2022/11/23 03:23:51;;;;;;;;;16.00;13.50;;;;;7.98;86.48;99508.91;5023750;28;11437;-64
2022/11/23 03:26:19;;;;;;;;;19.50;15.75;;;;;8.05;86.32;99521.25;5028781;28;10642;-64
2022/11/23 03:28:54;;;;;;;;;16.25;13.50;;;;;8.07;85.94;99523.72;5025676;28;10878;-64
2022/11/23 03:31:25;;;;;;;;;17.25;15.75;;;;;8.10;85.78;99532.19;5039748;28;10859;-64
2022/11/23 03:33:52;;;;;;;;;17.50;15.00;;;;;8.12;86.03;99521.25;5039246;28;10776;-64
2022/11/23 03:36:19;;;;;;;;;11.75;11.75;;;;;8.14;85.92;99527.19;5028101;28;11517;-64
2022/11/23 03:38:46;;;;;;;;;15.25;12.00;;;;;8.13;85.48;99528.25;5022005;28;10686;-65
2022/11/23 03:41:30;;;;;;;;;19.50;19.00;;;;;8.10;86.04;99523.28;5030022;28;10996;-64
2022/11/23 03:43:58;;;;;;;;;23.50;18.25;;;;;8.09;86.00;99527.84;5028387;28;10852;-64
2022/11/23 03:46:24;;;;;;;;;20.75;14.25;;;;;8.10;85.62;99524.13;5025079;28;10903;-64
2022/11/23 03:48:51;;;;;;;;;18.50;18.00;;;;;8.04;85.42;99530.31;5028007;28;10801;-64
2022/11/23 03:51:17;;;;;;;;;22.00;17.00;;;;;8.01;85.88;99530.75;5026841;28;10720;-61
2022/11/23 03:53:44;;;;;;;;;13.50;13.50;;;;;7.99;85.84;99526.63;5026291;28;10692;-64
2022/11/23 03:56:11;;;;;;;;;14.25;11.50;;;;;8.04;85.91;99526.81;5026676;28;10812;-65
2022/11/23 03:58:41;;;;;;;;;20.00;17.50;;;;;8.06;85.86;99525.59;5029579;28;10530;-64
2022/11/23 04:01:10;;;;;;;;;16.75;15.75;;;;;8.01;85.88;99517.34;5008171;28;11403;-64
2022/11/23 04:03:37;;;;;;;;;16.00;16.00;;;;;8.02;86.03;99520.84;5027405;28;11612;-64
2022/11/23 04:06:12;;;;;;;;;18.50;15.00;;;;;8.05;85.20;99528.47;5028669;28;10783;-65
2022/11/23 04:08:47;;;;;;;;;15.00;15.00;;;;;8.04;85.41;99519.59;5021165;28;10809;-63
2022/11/23 04:11:22;;;;;;;;;16.50;14.50;;;;;8.11;86.05;99514.25;5027627;28;11558;-65
2022/11/23 04:13:49;;;;;;;;;24.75;20.00;;;;;8.11;85.56;99516.91;5027712;28;10749;-64
2022/11/23 04:16:17;;;;;;;;;16.00;14.25;;;;;8.13;85.49;99518.34;5029062;28;10814;-64
2022/11/23 04:18:44;;;;;;;;;25.50;22.75;;;;;8.08;85.00;99522.69;5020589;28;11036;-65
2022/11/23 04:21:10;;;;;;;;;28.50;23.25;;;;;8.04;85.08;99524.97;5018369;28;11049;-64
2022/11/23 04:23:37;;;;;;;;;28.25;20.50;;;;;8.00;85.57;99518.38;5021698;28;11164;-64
2022/11/23 04:26:06;;;;;;;;;22.50;20.75;;;;;8.08;85.60;99515.47;5022156;28;10955;-64
2022/11/23 04:28:37;;;;;;;;;25.25;21.50;;;;;8.15;85.78;99524.31;5029519;28;10787;-65
2022/11/23 04:31:04;;;;;;;;;23.50;18.50;;;;;8.20;85.68;99515.66;5016326;28;10921;-61
2022/11/23 04:33:40;;;;;;;;;22.00;20.00;;;;;8.20;85.47;99518.31;5011105;28;10837;-62
2022/11/23 04:36:07;;;;;;;;;21.00;19.25;;;;;8.23;84.67;99519.78;5016378;28;10968;-65
2022/11/23 04:38:34;;;;;;;;;24.00;21.00;;;;;8.17;85.02;99516.06;5004537;28;11721;-65
2022/11/23 04:41:01;;;;;;;;;25.00;20.50;;;;;8.17;85.14;99526.78;5028480;28;10878;-66
2022/11/23 04:43:28;;;;;;;;;24.00;19.75;;;;;8.11;85.83;99524.97;5042453;28;10965;-63
2022/11/23 04:45:54;;;;;;;;;26.00;22.50;;;;;8.07;85.43;99521.88;5026742;28;10905;-62
2022/11/23 04:48:27;;;;;;;;;22.00;19.00;;;;;8.13;85.34;99530.91;5027980;28;11029;-65
2022/11/23 04:50:55;;;;;;;;;22.75;18.50;;;;;8.18;85.46;99537.31;5018788;28;11611;-65
2022/11/23 04:53:28;;;;;;;;;20.00;19.50;;;;;8.13;85.93;99526.38;5029322;28;10957;-64
2022/11/23 04:55:56;;;;;;;;;19.25;19.25;;;;;8.06;85.90;99530.09;5025816;28;10733;-64
2022/11/23 04:58:22;;;;;;;;;20.25;18.50;;;;;8.09;85.96;99532.38;5024666;28;10957;-64
2022/11/23 05:00:56;;;;;;;;;19.75;15.25;;;;;8.13;85.65;99534.41;5025999;28;10832;-65
2022/11/23 05:03:23;;;;;;;;;16.75;13.50;;;;;8.11;85.80;99538.38;5012750;28;11438;-64
2022/11/23 05:05:49;;;;;;;;;20.50;14.25;;;;;8.15;85.56;99526.19;5026208;28;11838;-63
2022/11/23 05:08:16;;;;;;;;;18.75;16.00;;;;;8.21;86.00;99524.50;5012765;28;10899;-64
2022/11/23 05:10:49;;;;;;;;;18.50;14.00;;;;;8.22;85.88;99518.91;5019688;28;10731;-64
2022/11/23 05:13:15;;;;;;;;;14.25;13.25;;;;;8.24;85.41;99516.88;5024394;28;11429;-63
2022/11/23 05:15:43;;;;;;;;;18.00;15.00;;;;;8.26;85.36;99522.00;5011023;28;10744;-64
2022/11/23 05:18:12;;;;;;;;;19.75;17.00;;;;;8.24;85.36;99519.56;5021350;28;10656;-65
2022/11/23 05:20:39;;;;;;;;;18.25;14.75;;;;;8.22;85.20;99518.91;5022836;28;10972;-64
2022/11/23 05:23:05;;;;;;;;;19.50;17.50;;;;;8.23;85.47;99520.59;5032806;28;10949;-64
2022/11/23 05:25:33;;;;;;;;;20.75;18.25;;;;;8.17;84.95;99522.25;5026306;28;10786;-64
2022/11/23 05:28:02;;;;;;;;;22.25;18.75;;;;;8.19;84.46;99522.06;5025073;28;10845;-63
2022/11/23 05:30:49;;;;;;;;;21.50;17.00;;;;;8.18;85.19;99523.06;5028226;28;10826;-64
2022/11/23 05:33:15;;;;;;;;;19.25;16.75;;;;;8.12;84.88;99531.97;5034304;28;10927;-64
2022/11/23 05:35:42;;;;;;;;;14.50;13.75;;;;;8.18;84.57;99525.75;5020227;28;10765;-64
2022/11/23 05:38:09;;;;;;;;;26.50;20.00;;;;;8.18;85.20;99531.09;5026690;28;10667;-64
2022/11/23 05:40:36;;;;;;;;;21.00;18.00;;;;;8.22;84.40;99540.38;5025711;28;11545;-64
2022/11/23 05:43:03;;;;;;;;;16.25;14.25;;;;;8.25;84.34;99545.31;5032356;28;10722;-64
2022/11/23 05:45:30;;;;;;;;;21.75;16.25;;;;;8.23;84.23;99534.00;5022667;28;10909;-64
2022/11/23 05:47:58;;;;;;;;;18.75;18.00;;;;;8.23;84.87;99539.34;5047231;28;10696;-64
2022/11/23 05:50:40;;;;;;;;;22.25;18.25;;;;;8.22;84.04;99544.91;5021789;28;10667;-65
2022/11/23 05:53:22;;;;;;;;;12.75;11.75;;;;;8.21;84.10;99544.09;5016151;28;10730;-64
2022/11/23 05:55:59;;;;;;;;;22.00;15.00;;;;;8.20;84.15;99549.69;5040223;28;10690;-64
2022/11/23 05:58:27;;;;;;;;;19.25;17.25;;;;;8.22;84.40;99543.06;5024470;28;10757;-64
2022/11/23 06:00:58;;;;;;;;;21.75;17.00;;;;;8.19;84.32;99548.84;5022790;28;10606;-64
2022/11/23 06:03:26;;;;;;;;;17.25;15.25;;;;;8.24;84.42;99542.84;5032232;28;11594;-64
2022/11/23 06:05:53;;;;;;;;;16.00;13.50;;;;;8.22;83.95;99542.22;5031673;28;11677;-63
2022/11/23 06:08:27;;;;;;;;;15.50;15.00;;;;;8.25;83.91;99552.53;5025509;28;11447;-64
2022/11/23 06:10:54;;;;;;;;;21.25;18.75;;;;;8.15;83.64;99542.28;5020264;28;10705;-64
2022/11/23 06:13:21;;;;;;;;;19.50;16.00;;;;;8.21;83.53;99548.63;5017665;28;10990;-64
2022/11/23 06:15:47;;;;;;;;;14.25;13.25;;;;;8.23;83.54;99547.41;5025275;28;10870;-62
2022/11/23 06:18:20;;;;;;;;;21.00;17.75;;;;;8.26;83.52;99554.19;5032051;28;10544;-61
2022/11/23 06:20:48;;;;;;;;;16.50;16.50;;;;;8.29;83.58;99551.91;5026607;28;10879;-65
2022/11/23 06:23:14;;;;;;;;;22.50;18.50;;;;;8.22;82.92;99539.56;5025833;28;10850;-63
2022/11/23 06:25:41;;;;;;;;;25.00;19.75;;;;;8.18;82.92;99545.34;5026539;28;11568;-63
2022/11/23 06:28:22;;;;;;;;;20.50;18.00;;;;;8.10;83.23;99542.06;5027092;28;11649;-64
2022/11/23 06:30:51;;;;;;;;;15.50;15.50;;;;;8.07;82.87;99537.94;5022745;28;11588;-65
2022/11/23 06:33:18;;;;;;;;;27.75;21.50;;;;;8.13;82.80;99545.13;5030010;28;10862;-61
2022/11/23 06:35:55;;;;;;;;;15.75;14.75;;;;;8.07;82.95;99534.44;5020903;28;11027;-64
2022/11/23 06:38:25;;;;;;;;;16.75;14.00;;;;;8.06;82.36;99535.47;5004871;28;10728;-65
2022/11/23 06:41:00;;;;;;;;;18.00;14.50;;;;;8.10;82.32;99545.59;5041499;28;10823;-64
2022/11/23 06:43:29;;;;;;;;;20.25;16.50;;;;;8.11;82.12;99547.22;5019165;28;10796;-63
2022/11/23 06:45:56;;;;;;;;;24.00;23.50;;;;;8.12;82.40;99548.03;5026951;28;11024;-62
2022/11/23 06:48:26;;;;;;;;;13.25;13.00;;;;;8.12;81.72;99545.34;5038725;28;12247;-64
2022/11/23 06:50:58;;;;;;;;;16.00;13.00;;;;;8.07;82.46;99542.50;5016431;28;10835;-62
2022/11/23 06:53:27;;;;;;;;;12.50;11.00;;;;;8.11;82.00;99541.03;5020688;28;10863;-65
2022/11/23 06:55:59;;;;;;;;;15.25;13.50;;;;;8.09;81.88;99543.91;5028627;28;10541;-63
2022/11/23 06:58:27;;;;;;;;;15.50;13.00;;;;;8.15;82.23;99544.94;5024945;28;10661;-64
2022/11/23 07:01:02;;;;;;;;;12.75;11.75;;;;;8.18;81.79;99549.88;5021747;28;10726;-64
2022/11/23 07:03:34;;;;;;;;;16.75;13.25;;;;;8.14;82.02;99557.53;5023544;28;10594;-64
2022/11/23 07:06:09;;;;;;;;;16.00;13.50;;;;;8.15;81.42;99561.03;5026910;28;11702;-63
2022/11/23 07:08:42;;;;;;;;;15.50;13.00;;;;;8.09;81.94;99570.72;5015465;28;10834;-66
2022/11/23 07:11:22;;;;;;;;;13.25;10.25;;;;;8.15;81.76;99567.22;5022197;28;10916;-64
2022/11/23 07:13:48;;;;;;;;;15.00;14.50;;;;;8.13;81.94;99568.44;5022442;28;11551;-63
2022/11/23 07:16:15;;;;;;;;;13.00;12.75;;;;;8.14;81.92;99568.25;5025805;28;10736;-62
2022/11/23 07:18:41;;;;;;;;;15.50;13.50;;;;;8.12;82.20;99569.47;5025251;28;10945;-64
2022/11/23 07:21:08;;;;;;;;;15.50;12.00;;;;;8.13;82.59;99576.47;5019810;28;10937;-65
2022/11/23 07:23:39;;;;;;;;;12.00;9.50;;;;;8.20;82.16;99574.63;5030213;28;10852;-63
2022/11/23 07:26:08;;;;;;;;;10.75;9.50;;;;;8.22;82.01;99587.81;5031349;28;11166;-63
2022/11/23 07:28:34;;;;;;;;;11.25;8.50;;;;;8.22;81.80;99590.47;5034858;28;10649;-62
2022/11/23 07:31:01;;;;;;;;;13.00;10.25;;;;;8.22;81.75;99602.03;5020567;28;10702;-63
2022/11/23 07:33:27;;;;;;;;;14.00;13.50;;;;;8.17;81.49;99601.84;5031292;28;10538;-62
2022/11/23 07:35:54;;;;;;;;;13.50;13.00;;;;;8.18;81.98;99608.84;5024424;28;10845;-60
2022/11/23 07:38:21;;;;;;;;;11.00;11.00;;;;;8.17;81.84;99607.19;5013434;28;10474;-62
2022/11/23 07:40:50;;;;;;;;;14.25;9.75;;;;;8.14;81.70;99605.78;5018308;28;10380;-62
2022/11/23 07:43:33;;;;;;;;;11.00;11.00;;;;;8.13;82.11;99608.66;5035407;28;10612;-61
2022/11/23 07:46:01;;;;;;;;;10.50;10.50;;;;;8.06;81.73;99610.50;5025442;28;10558;-64
2022/11/23 07:48:27;;;;;;;;;8.00;8.00;;;;;8.01;81.95;99621.03;5023441;28;10607;-64
2022/11/23 07:51:01;;;;;;;;;7.50;7.25;;;;;8.02;82.52;99615.47;5026552;28;10585;-64
2022/11/23 07:53:27;;;;;;;;;8.75;8.75;;;;;7.98;81.84;99616.06;5022688;28;11240;-64
2022/11/23 07:55:56;;;;;;;;;7.75;5.50;;;;;7.93;82.32;99620.19;5026966;28;10543;-64
2022/11/23 07:58:22;;;;;;;;;5.25;3.75;;;;;7.95;82.37;99624.56;5026212;28;11451;-64
2022/11/23 08:00:48;;;;;;;;;6.25;4.00;;;;;7.85;81.89;99627.63;5018871;28;10463;-61
2022/11/23 08:03:15;;;;;;;;;4.00;4.00;;;;;7.87;81.90;99618.38;5022515;28;10472;-63
2022/11/23 08:05:57;;;;;;;;;6.50;5.50;;;;;7.90;81.50;99625.19;5022987;28;10650;-64
2022/11/23 08:08:23;;;;;;;;;3.25;3.25;;;;;7.95;81.47;99629.91;5014592;28;10490;-65
2022/11/23 08:10:50;;;;;;;;;5.00;2.50;;;;;7.87;82.17;99621.03;5020145;28;10236;-66
2022/11/23 08:13:20;;;;;;;;;3.00;3.00;;;;;7.82;81.48;99622.69;5022218;28;10494;-65
2022/11/23 08:15:46;;;;;;;;;3.75;2.25;;;;;7.79;81.73;99631.97;5026176;28;10589;-62
2022/11/23 08:18:20;;;;;;;;;2.50;2.50;;;;;7.83;81.48;99624.34;5013391;28;11176;-64
2022/11/23 08:20:46;;;;;;;;;3.00;3.00;;;;;7.83;81.14;99619.81;5015659;28;10410;-62
2022/11/23 08:23:13;;;;;;;;;4.75;1.75;;;;;7.81;80.84;99627.22;5014160;28;10382;-63
2022/11/23 08:25:40;;;;;;;;;5.50;2.75;;;;;7.74;81.72;99623.72;5018868;28;10305;-63
2022/11/23 08:28:06;;;;;;;;;3.75;3.75;;;;;7.74;81.72;99626.41;5028497;28;10525;-63
2022/11/23 08:30:33;;;;;;;;;3.75;1.25;;;;;7.77;81.89;99623.28;5015227;28;11191;-62
2022/11/23 08:33:04;;;;;;;;;3.00;3.00;;;;;7.82;81.76;99628.88;5024625;28;10378;-64
2022/11/23 08:35:38;;;;;;;;;1.00;1.00;;;;;7.86;81.18;99621.25;5024661;28;10479;-62
2022/11/23 08:38:06;;;;;;;;;4.75;3.75;;;;;7.86;81.18;99624.75;5019226;28;10452;-64
2022/11/23 08:40:32;;;;;;;;;3.75;2.00;;;;;7.87;81.72;99623.72;5022837;28;10385;-63
2022/11/23 08:42:59;;;;;;;;;2.00;2.00;;;;;7.89;81.35;99620.81;5022073;28;10417;-64
2022/11/23 08:45:26;;;;;;;;;1.50;1.50;;;;;7.97;81.40;99622.47;5025345;28;10653;-62
2022/11/23 08:47:52;;;;;;;;;3.50;1.75;;;;;7.99;81.58;99620.44;5032490;28;10442;-63
2022/11/23 08:50:19;;;;;;;;;2.00;1.50;;;;;7.93;81.27;99630.09;5032704;28;11226;-64
2022/11/23 08:52:46;;;;;;;;;4.50;3.50;;;;;7.85;81.94;99633.81;5023729;28;10459;-62
2022/11/23 08:55:13;;;;;;;;;1.25;0.75;;;;;7.88;82.03;99640.63;5017654;28;10521;-66
2022/11/23 08:57:39;;;;;;;;;3.00;2.00;;;;;7.88;81.48;99641.44;5024056;28;10490;-64
2022/11/23 09:00:06;;;;;;;;;2.50;2.50;;;;;7.88;81.84;99637.94;5024271;28;10451;-61
2022/11/23 09:02:32;;;;;;;;;2.00;2.00;;;;;7.96;81.96;99634.22;5020415;28;10539;-60
2022/11/23 09:04:59;;;;;;;;;2.50;2.00;;;;;7.96;82.19;99634.22;5022561;28;10507;-64
2022/11/23 09:07:26;;;;;;;;;4.00;1.00;;;;;7.93;82.63;99632.78;5031029;28;10397;-64
2022/11/23 09:09:52;;;;;;;;;2.75;2.00;;;;;7.87;82.59;99622.91;5026409;28;10509;-61
2022/11/23 09:12:18;;;;;;;;;4.00;1.00;;;;;7.81;82.82;99621.84;5026456;28;10469;-63
2022/11/23 09:14:45;;;;;;;;;3.50;1.75;;;;;7.85;82.86;99612.38;5031285;28;10429;-62
2022/11/23 09:17:11;;;;;;;;;2.00;2.00;;;;;7.93;82.92;99622.06;5025934;28;10290;-67
2022/11/23 09:19:38;;;;;;;;;3.25;1.00;;;;;7.90;82.71;99611.78;5026571;28;10590;-64
2022/11/23 09:22:04;;;;;;;;;2.00;1.50;;;;;7.93;82.58;99617.53;5026291;28;10479;-64
2022/11/23 09:24:30;;;;;;;;;1.25;1.00;;;;;7.87;82.42;99602.28;5027811;28;10380;-63
2022/11/23 09:26:57;;;;;;;;;2.00;2.00;;;;;7.89;82.84;99604.75;5023049;28;10576;-63
2022/11/23 09:29:24;;;;;;;;;5.75;3.00;;;;;8.00;83.21;99597.94;5037367;28;11271;-63
2022/11/23 09:31:51;;;;;;;;;4.00;4.00;;;;;7.94;82.94;99599.63;5020383;28;10622;-62
2022/11/23 09:34:18;;;;;;;;;5.00;4.00;;;;;7.89;82.92;99586.81;5015277;28;10616;-64
2022/11/23 09:36:44;;;;;;;;;2.00;2.00;;;;;8.07;82.59;99580.84;5029167;28;10524;-64
2022/11/23 09:39:11;;;;;;;;;8.50;2.50;;;;;8.14;81.94;99575.44;5026926;28;10231;-63
2022/11/23 09:42:05;;;;;;;;;3.25;1.00;;;;;8.23;82.33;99576.88;5028446;28;10401;-62
2022/11/23 09:44:34;;;;;;;;;2.50;2.00;;;;;8.28;81.78;99576.25;5024510;28;10278;-63
2022/11/23 09:47:19;;;;;;;;;2.00;2.00;;;;;8.30;81.70;99571.50;5024068;28;10302;-63
2022/11/23 09:50:10;;;;;;;;;2.00;2.00;;;;;8.24;81.32;99562.44;5022848;28;10443;-56
2022/11/23 09:52:44;;;;;;;;;4.50;1.50;;;;;8.25;80.82;99557.91;5022638;28;10532;-63
2022/11/23 09:55:28;;;;;;;;;5.25;1.50;;;;;8.25;80.28;99556.03;5027224;28;10289;-63
2022/11/23 09:58:00;;;;;;;;;3.50;3.50;;;;;8.30;80.15;99550.84;5024778;28;10279;-64
2022/11/23 10:00:34;;;;;;;;;7.50;4.00;;;;;8.29;79.87;99551.09;5023919;28;10417;-62
2022/11/23 10:03:00;;;;;;;;;1.50;1.00;;;;;8.47;79.25;99545.06;5029022;28;10271;-62
2022/11/23 10:05:31;;;;;;;;;4.75;3.50;;;;;8.60;79.13;99539.66;5019616;28;10341;-63
2022/11/23 10:08:08;;;;;;;;;2.00;2.00;;;;;8.54;78.13;99549.38;5030258;28;10452;-59
2022/11/23 10:10:44;;;;;;;;;2.50;1.00;;;;;8.50;77.68;99536.59;5030918;28;10331;-61
2022/11/23 10:13:41;;;;;;;;;4.75;2.75;;;;;8.45;78.06;99542.59;5028170;28;10148;-63
2022/11/23 10:16:14;;;;;;;;;1.00;1.00;;;;;8.44;77.45;99545.50;5027239;28;10290;-63
2022/11/23 10:19:08;;;;;;;;;4.50;1.50;;;;;8.50;77.36;99533.91;5014137;28;10281;-63
2022/11/23 10:21:43;;;;;;;;;2.00;1.00;;;;;8.58;76.61;99533.66;5015233;28;11209;-57
2022/11/23 10:24:20;;;;;;;;;1.00;1.00;;;;;8.55;76.61;99534.13;5022876;28;10237;-61
2022/11/23 10:26:50;;;;;;;;;4.00;1.75;;;;;8.55;76.35;99534.13;5031059;28;10400;-58
2022/11/23 10:29:32;;;;;;;;;2.00;1.00;;;;;8.60;76.11;99543.16;5030470;28;10161;-59
2022/11/23 10:31:59;;;;;;;;;2.00;2.00;;;;;8.77;78.39;99548.03;5030060;28;10355;-59
2022/11/23 10:34:49;;;;;;;;;2.50;0.25;;;;;8.83;76.09;99541.81;5018375;28;10237;-60
2022/11/23 10:37:17;;;;;;;;;3.00;3.00;;;;;8.75;75.42;99542.03;5028090;28;10144;-62
2022/11/23 10:39:43;;;;;;;;;1.75;1.75;;;;;8.75;74.73;99540.22;5031891;28;10396;-63
2022/11/23 10:42:24;;;;;;;;;5.25;2.00;;;;;8.82;74.72;99543.66;5031383;28;10232;-63
2022/11/23 10:44:54;;;;;;;;;2.00;2.00;;;;;8.55;75.19;99552.91;5031941;28;11211;-62
2022/11/23 10:47:38;;;;;;;;;1.00;0.00;;;;;8.48;75.33;99544.03;5022893;28;10200;-63
2022/11/23 10:50:26;;;;;;;;;7.25;4.00;;;;;8.55;75.29;99550.22;5021221;28;10325;-63
2022/11/23 10:52:59;;;;;;;;;2.00;1.75;;;;;8.50;74.88;99529.38;5027406;28;10157;-62
2022/11/23 10:55:45;;;;;;;;;3.00;3.00;;;;;8.42;75.37;99527.75;5040929;28;10039;-59
2022/11/23 10:58:28;;;;;;;;;4.50;4.50;;;;;8.26;76.19;99544.28;5028382;28;10358;-61
2022/11/23 11:00:59;;;;;;;;;5.00;3.50;;;;;8.31;76.34;99544.50;5023362;28;11081;-62
2022/11/23 11:03:31;;;;;;;;;2.25;2.25;;;;;8.39;76.16;99548.81;5031389;28;10179;-61
2022/11/23 11:05:58;;;;;;;;;2.00;2.00;;;;;8.49;75.52;99532.28;5026412;28;10245;-60
2022/11/23 11:08:56;;;;;;;;;4.75;4.25;;;;;8.38;76.07;99542.63;5043807;28;10334;-64
2022/11/23 11:11:26;;;;;;;;;5.00;3.00;;;;;8.42;76.02;99543.03;5022885;28;10509;-63
2022/11/23 11:14:19;;;;;;;;;1.25;1.25;;;;;8.39;75.80;99548.81;5016757;28;10505;-64
2022/11/23 11:16:54;;;;;;;;;4.50;3.00;;;;;8.31;76.34;99552.53;5026025;28;11059;-62
2022/11/23 11:19:29;;;;;;;;;7.00;2.50;;;;;8.39;75.96;99559.56;5022337;28;10406;-64
2022/11/23 11:21:57;;;;;;;;;5.25;4.25;;;;;8.35;75.63;99556.44;5017015;28;11217;-64
2022/11/23 11:24:34;;;;;;;;;3.50;3.00;;;;;8.34;76.02;99551.25;5030810;28;10502;-64
2022/11/23 11:27:05;;;;;;;;;5.00;3.00;;;;;8.17;76.07;99554.41;5019362;28;10529;-63
2022/11/23 11:29:43;;;;;;;;;5.25;4.00;;;;;8.07;76.29;99539.81;5024247;28;10394;-64
2022/11/23 11:32:38;;;;;;;;;5.50;5.50;;;;;8.09;76.32;99543.91;5024003;28;10523;-63
2022/11/23 11:35:27;;;;;;;;;7.00;6.50;;;;;8.03;76.51;99534.03;5030495;28;10433;-63
2022/11/23 11:37:59;;;;;;;;;5.00;2.00;;;;;8.13;76.46;99528.25;5025249;28;10476;-65
2022/11/23 11:40:35;;;;;;;;;7.00;7.00;;;;;8.21;75.85;99522.66;5016746;28;11018;-59
2022/11/23 11:43:16;;;;;;;;;4.75;4.50;;;;;8.34;75.47;99525.28;5028011;28;11224;-61
2022/11/23 11:45:45;;;;;;;;;6.00;5.25;;;;;8.25;75.54;99510.47;5024667;28;10468;-61
2022/11/23 11:48:38;;;;;;;;;5.00;5.00;;;;;8.20;75.16;99496.88;5030833;28;10468;-62